createdAt,value
2018-04-13T00:01:16.184Z,95106.41
2018-04-13T00:03:42.082Z,95108.20
2018-04-13T00:06:07.969Z,95111.66
2018-04-13T00:08:35.152Z,95114.05
2018-04-13T00:11:01.022Z,95119.30
2018-04-13T00:13:29.677Z,95118.70
2018-04-13T00:15:55.522Z,95121.14
2018-04-13T00:18:24.208Z,95122.26
2018-04-13T00:20:50.116Z,95118.08
2018-04-13T00:23:18.976Z,95118.02
2018-04-13T00:25:44.850Z,95114.32
2018-04-13T00:28:14.525Z,95126.33
2018-04-13T00:30:40.393Z,95122.73
2018-04-13T00:33:09.976Z,95119.54
2018-04-13T00:35:35.850Z,95121.60
2018-04-13T00:38:01.749Z,95116.16
2018-04-13T00:40:27.615Z,95115.70
2018-04-13T00:42:53.560Z,95121.48
2018-04-13T00:45:21.080Z,95123.47
2018-04-13T00:47:46.980Z,95118.60
2018-04-13T00:50:18.429Z,95121.68
2018-04-13T00:52:51.093Z,95123.74
2018-04-13T00:55:16.971Z,95120.70
2018-04-13T00:57:42.891Z,95121.98
2018-04-13T01:00:08.793Z,95110.98
2018-04-13T01:02:34.689Z,95122.47
2018-04-13T01:07:53.838Z,95118.66
2018-04-13T01:10:19.901Z,95115.70
2018-04-13T01:12:45.885Z,95120.05
2018-04-13T01:15:11.778Z,95112.75
2018-04-13T01:17:37.638Z,95110.15
2018-04-13T01:20:03.534Z,95107.57
2018-04-13T01:22:29.382Z,95105.88
2018-04-13T01:24:55.295Z,95103.71
2018-04-13T01:27:21.213Z,95106.47
2018-04-13T01:29:47.085Z,95099.89
2018-04-13T01:32:12.961Z,95103.10
2018-04-13T01:34:38.910Z,95105.21
2018-04-13T01:37:04.823Z,95097.61
2018-04-13T01:39:30.656Z,95097.94
2018-04-13T01:41:56.549Z,95094.20
2018-04-13T01:44:22.469Z,95096.56
2018-04-13T01:46:48.437Z,95090.47
2018-04-13T01:49:14.324Z,95086.38
2018-04-13T01:51:40.182Z,95091.08
2018-04-13T01:54:07.747Z,95089.92
2018-04-13T01:56:33.669Z,95093.81
2018-04-13T01:58:59.528Z,95094.36
2018-04-13T02:01:25.977Z,95096.74
2018-04-13T02:03:51.805Z,95097.70
2018-04-13T02:06:17.651Z,95083.16
2018-04-13T02:08:43.551Z,95099.09
2018-04-13T02:11:09.402Z,95091.22
2018-04-13T02:13:35.287Z,95090.88
2018-04-13T02:16:01.138Z,95097.81
2018-04-13T02:18:30.887Z,95095.83
2018-04-13T02:20:56.843Z,95102.05
2018-04-13T02:23:26.281Z,95106.03
2018-04-13T02:25:52.152Z,95111.67
2018-04-13T02:28:18.040Z,95119.20
2018-04-13T02:30:43.934Z,95119.36
2018-04-13T02:33:09.812Z,95124.09
2018-04-13T02:35:36.782Z,95122.31
2018-04-13T02:38:02.682Z,95119.44
2018-04-13T02:40:31.915Z,95129.15
2018-04-13T02:42:57.786Z,95122.02
2018-04-13T02:45:25.849Z,95132.00
2018-04-13T02:47:51.726Z,95136.32
2018-04-13T02:50:21.158Z,95131.43
2018-04-13T02:52:47.046Z,95139.38
2018-04-13T02:55:15.169Z,95135.59
2018-04-13T02:57:41.063Z,95138.50
2018-04-13T03:00:09.728Z,95142.12
2018-04-13T03:02:35.602Z,95138.98
2018-04-13T03:05:01.470Z,95145.75
2018-04-13T03:07:27.345Z,95139.81
2018-04-13T03:10:08.205Z,95142.06
2018-04-13T03:12:34.079Z,95136.39
2018-04-13T03:14:59.970Z,95139.05
2018-04-13T03:17:25.812Z,95142.70
2018-04-13T03:19:51.682Z,95144.75
2018-04-13T03:22:17.553Z,95151.25
2018-04-13T03:24:43.402Z,95149.75
2018-04-13T03:27:09.286Z,95156.14
2018-04-13T03:29:35.149Z,95155.67
2018-04-13T03:32:01.097Z,95149.05
2018-04-13T03:34:27.018Z,95152.58
2018-04-13T03:36:56.703Z,95154.73
2018-04-13T03:39:22.618Z,95155.69
2018-04-13T03:41:48.549Z,95164.79
2018-04-13T03:44:14.451Z,95172.23
2018-04-13T03:46:40.290Z,95172.55
2018-04-13T03:49:06.965Z,95172.59
2018-04-13T03:51:32.830Z,95175.98
2018-04-13T03:54:02.449Z,95176.41
2018-04-13T03:56:28.343Z,95177.69
2018-04-13T03:58:58.021Z,95175.53
2018-04-13T04:01:23.850Z,95182.95
2018-04-13T04:03:51.665Z,95192.83
2018-04-13T04:06:17.602Z,95190.32
2018-04-13T04:08:45.582Z,95195.91
2018-04-13T04:11:11.447Z,95197.78
2018-04-13T04:13:40.995Z,95206.76
2018-04-13T04:16:06.882Z,95210.70
2018-04-13T04:18:32.746Z,95218.96
2018-04-13T04:21:11.126Z,95220.53
2018-04-13T04:23:49.556Z,95219.10
2018-04-13T04:26:27.889Z,95228.91
2018-04-13T04:28:53.787Z,95226.66
2018-04-13T04:31:20.478Z,95233.46
2018-04-13T04:33:46.333Z,95225.51
2018-04-13T04:36:12.282Z,95235.39
2018-04-13T04:38:38.158Z,95230.67
2018-04-13T04:41:04.010Z,95235.83
2018-04-13T04:43:29.883Z,95240.65
2018-04-13T04:45:55.742Z,95248.24
2018-04-13T04:48:21.600Z,95253.42
2018-04-13T04:50:47.520Z,95254.53
2018-04-13T04:53:13.366Z,95266.33
2018-04-13T04:55:39.242Z,95261.34
2018-04-13T04:58:05.137Z,95258.94
2018-04-13T05:00:31.106Z,95261.69
2018-04-13T05:02:57.000Z,95256.05
2018-04-13T05:05:22.845Z,95265.47
2018-04-13T05:07:48.769Z,95269.06
2018-04-13T05:10:14.606Z,95267.77
2018-04-13T05:12:40.466Z,95276.41
2018-04-13T05:15:06.357Z,95274.78
2018-04-13T05:17:32.244Z,95280.70
2018-04-13T05:19:58.228Z,95274.25
2018-04-13T05:22:24.106Z,95276.80
2018-04-13T05:24:50.049Z,95281.97
2018-04-13T05:27:15.910Z,95280.36
2018-04-13T05:29:41.789Z,95286.06
2018-04-13T05:32:07.705Z,95286.09
2018-04-13T05:34:33.586Z,95272.62
2018-04-13T05:36:59.454Z,95287.95
2018-04-13T05:39:25.349Z,95289.51
2018-04-13T05:41:51.202Z,95290.91
2018-04-13T05:44:17.948Z,95291.09
2018-04-13T05:46:44.010Z,95291.78
2018-04-13T05:49:13.154Z,95294.16
2018-04-13T05:51:39.062Z,95286.72
2018-04-13T05:54:08.681Z,95298.68
2018-04-13T05:56:34.577Z,95304.82
2018-04-13T05:59:03.497Z,95304.37
2018-04-13T06:01:29.386Z,95304.59
2018-04-13T06:03:57.133Z,95304.46
2018-04-13T06:06:22.998Z,95303.92
2018-04-13T06:08:48.880Z,95299.32
2018-04-13T06:11:14.757Z,95294.95
2018-04-13T06:13:40.685Z,95293.72
2018-04-13T06:16:08.059Z,95295.89
2018-04-13T06:18:33.985Z,95294.86
2018-04-13T06:21:03.061Z,95293.22
2018-04-13T06:23:28.949Z,95288.98
2018-04-13T06:25:58.046Z,95286.17
2018-04-13T06:28:23.909Z,95284.65
2018-04-13T06:30:53.190Z,95276.83
2018-04-13T06:33:19.076Z,95282.86
2018-04-13T06:35:48.540Z,95282.73
2018-04-13T06:38:14.418Z,95289.83
2018-04-13T06:40:42.128Z,95289.67
2018-04-13T06:43:07.990Z,95295.64
2018-04-13T06:45:33.878Z,95301.03
2018-04-13T06:47:59.747Z,95312.82
2018-04-13T06:50:25.876Z,95307.61
2018-04-13T06:52:53.246Z,95317.41
2018-04-13T06:55:19.132Z,95319.00
2018-04-13T06:57:47.896Z,95316.72
2018-04-13T07:00:14.260Z,95323.83
2018-04-13T07:02:43.351Z,95326.63
2018-04-13T07:05:09.229Z,95336.48
2018-04-13T07:07:38.314Z,95338.78
2018-04-13T07:10:04.180Z,95346.07
2018-04-13T07:12:32.140Z,95345.90
2018-04-13T07:14:58.049Z,95352.92
2018-04-13T07:17:27.345Z,95346.95
2018-04-13T07:19:53.200Z,95357.08
2018-04-13T07:22:19.086Z,95355.61
2018-04-13T07:24:45.000Z,95363.33
2018-04-13T07:27:10.978Z,95365.33
2018-04-13T07:29:40.203Z,95375.11
2018-04-13T07:32:06.126Z,95374.27
2018-04-13T07:34:35.521Z,95381.73
2018-04-13T07:37:01.126Z,95388.84
2018-04-13T07:39:28.145Z,95392.31
2018-04-13T07:41:54.063Z,95397.05
2018-04-13T07:44:23.331Z,95391.54
2018-04-13T07:46:49.258Z,95406.66
2018-04-13T07:49:18.395Z,95409.30
2018-04-13T07:51:44.273Z,95415.27
2018-04-13T07:54:12.435Z,95412.65
2018-04-13T07:56:38.285Z,95413.46
2018-04-13T07:59:04.161Z,95417.67
2018-04-13T08:01:30.107Z,95429.90
2018-04-13T08:03:56.839Z,95430.95
2018-04-13T08:06:25.716Z,95437.67
2018-04-13T08:08:51.616Z,95438.78
2018-04-13T08:11:18.940Z,95439.34
2018-04-13T08:13:44.643Z,95446.98
2018-04-13T08:16:14.304Z,95450.83
2018-04-13T08:18:40.224Z,95455.11
2018-04-13T08:21:08.565Z,95458.11
2018-04-13T08:23:34.484Z,95471.27
2018-04-13T08:26:03.757Z,95472.45
2018-04-13T08:28:29.665Z,95479.98
2018-04-13T08:30:58.962Z,95472.45
2018-04-13T08:33:24.859Z,95480.64
2018-04-13T08:35:50.763Z,95483.33
2018-04-13T08:38:16.642Z,95479.22
2018-04-13T08:40:42.586Z,95477.88
2018-04-13T08:43:09.379Z,95491.90
2018-04-13T08:45:35.390Z,95490.97
2018-04-13T08:48:05.045Z,95494.73
2018-04-13T08:50:30.977Z,95499.62
2018-04-13T08:52:59.857Z,95499.09
2018-04-13T08:55:25.791Z,95508.88
2018-04-13T08:57:55.238Z,95513.42
2018-04-13T09:00:21.199Z,95519.67
2018-04-13T09:02:48.258Z,95526.41
2018-04-13T09:05:14.151Z,95531.94
2018-04-13T09:07:43.588Z,95540.70
2018-04-13T09:10:09.498Z,95552.91
2018-04-13T09:12:35.365Z,95546.32
2018-04-13T09:15:01.331Z,95566.28
2018-04-13T09:17:27.302Z,95574.67
2018-04-13T09:19:56.437Z,95578.59
2018-04-13T09:22:22.383Z,95581.55
2018-04-13T09:24:50.015Z,95596.61
2018-04-13T09:27:15.923Z,95605.20
2018-04-13T09:29:44.141Z,95611.66
2018-04-13T09:32:10.056Z,95617.12
2018-04-13T09:34:39.693Z,95625.66
2018-04-13T09:37:05.659Z,95636.92
2018-04-13T09:39:33.547Z,95643.09
2018-04-13T09:41:59.433Z,95659.52
2018-04-13T09:44:29.124Z,95665.59
2018-04-13T09:46:55.110Z,95682.89
2018-04-13T09:49:20.990Z,95677.79
2018-04-13T09:51:46.899Z,95691.84
2018-04-13T09:54:12.791Z,95698.09
2018-04-13T09:56:40.437Z,95704.16
2018-04-13T09:59:06.383Z,95711.59
2018-04-13T10:01:39.053Z,95709.14
2018-04-13T10:04:04.975Z,95705.47
2018-04-13T10:06:30.872Z,95721.69
2018-04-13T10:08:56.776Z,95722.20
2018-04-13T10:11:24.600Z,95728.52
2018-04-13T10:13:50.487Z,95736.39
2018-04-13T10:16:20.223Z,95747.02
2018-04-13T10:18:46.135Z,95748.25
2018-04-13T10:21:14.034Z,95756.61
2018-04-13T10:23:39.906Z,95758.72
2018-04-13T10:26:05.815Z,95770.30
2018-04-13T10:28:31.751Z,95770.22
2018-04-13T10:30:57.675Z,95761.38
2018-04-13T10:33:24.989Z,95770.13
2018-04-13T10:35:50.852Z,95776.73
2018-04-13T10:38:19.630Z,95790.06
2018-04-13T10:40:45.518Z,95786.98
2018-04-13T10:43:14.241Z,95788.39
2018-04-13T10:45:40.097Z,95795.09
2018-04-13T10:48:09.152Z,95798.84
2018-04-13T10:50:35.014Z,95808.30
2018-04-13T10:53:03.895Z,95806.16
2018-04-13T10:55:29.780Z,95819.72
2018-04-13T10:57:58.775Z,95818.22
2018-04-13T11:00:24.651Z,95827.89
2018-04-13T11:02:50.575Z,95826.63
2018-04-13T11:05:16.449Z,95842.09
2018-04-13T11:07:42.340Z,95841.25
2018-04-13T11:10:11.620Z,95843.23
2018-04-13T11:12:37.617Z,95848.38
2018-04-13T11:15:06.739Z,95856.48
2018-04-13T11:17:32.683Z,95867.23
2018-04-13T11:20:01.603Z,95866.75
2018-04-13T11:22:27.495Z,95872.34
2018-04-13T11:24:54.734Z,95879.38
2018-04-13T11:27:20.649Z,95891.41
2018-04-13T11:29:50.302Z,95893.53
2018-04-13T11:32:16.203Z,95887.63
2018-04-13T11:34:45.551Z,95908.45
2018-04-13T11:37:11.447Z,95905.70
2018-04-13T11:39:37.389Z,95913.77
2018-04-13T11:42:03.346Z,95913.78
2018-04-13T11:44:29.255Z,95918.30
2018-04-13T11:46:55.785Z,95932.70
2018-04-13T11:49:21.693Z,95936.38
2018-04-13T11:51:51.043Z,95934.30
2018-04-13T11:54:16.944Z,95929.49
2018-04-13T11:56:46.590Z,95945.34
2018-04-13T11:59:12.459Z,95948.84
2018-04-13T12:01:39.735Z,95954.65
2018-04-13T12:04:07.862Z,95951.10
2018-04-13T12:06:34.691Z,95961.08
2018-04-13T12:09:00.587Z,95971.38
2018-04-13T12:11:30.057Z,95971.44
2018-04-13T12:13:56.310Z,95973.27
2018-04-13T12:16:22.184Z,95978.47
2018-04-13T12:18:48.115Z,95982.84
2018-04-13T12:21:14.009Z,95985.97
2018-04-13T12:23:41.068Z,95991.45
2018-04-13T12:26:07.025Z,95991.48
2018-04-13T12:28:36.179Z,96005.77
2018-04-13T12:31:02.087Z,96009.11
2018-04-13T12:33:31.618Z,96011.19
2018-04-13T12:35:57.600Z,96017.69
2018-04-13T12:38:26.847Z,96016.52
2018-04-13T12:40:52.723Z,96026.00
2018-04-13T12:43:20.038Z,96027.84
2018-04-13T12:45:45.936Z,96036.50
2018-04-13T12:48:11.865Z,96036.20
2018-04-13T12:50:37.872Z,96038.91
2018-04-13T12:53:04.463Z,96039.94
2018-04-13T12:55:30.360Z,96033.77
2018-04-13T12:57:56.227Z,96023.81
2018-04-13T13:00:22.140Z,96017.11
2018-04-13T13:02:48.082Z,96031.76
2018-04-13T13:05:13.993Z,96044.73
2018-04-13T13:07:39.895Z,96045.92
2018-04-13T13:10:05.806Z,96058.43
2018-04-13T13:12:31.691Z,96066.13
2018-04-13T13:15:01.228Z,96082.62
2018-04-13T13:17:27.206Z,96083.77
2018-04-13T13:19:54.975Z,96092.14
2018-04-13T13:22:21.440Z,96105.38
2018-04-13T13:24:51.227Z,96105.02
2018-04-13T13:27:17.234Z,96109.38
2018-04-13T13:29:43.151Z,96118.23
2018-04-13T13:32:09.055Z,96122.95
2018-04-13T13:34:34.964Z,96120.31
2018-04-13T13:37:01.871Z,96122.06
2018-04-13T13:39:27.786Z,96129.73
2018-04-13T13:41:57.223Z,96139.38
2018-04-13T13:44:23.130Z,96147.87
2018-04-13T13:46:50.836Z,96147.25
2018-04-13T13:49:16.740Z,96148.83
2018-04-13T13:51:45.728Z,96144.86
2018-04-13T13:54:11.680Z,96140.05
2018-04-13T13:56:40.949Z,96143.86
2018-04-13T13:59:06.859Z,96155.44
2018-04-13T14:01:35.884Z,96164.22
2018-04-13T14:04:01.820Z,96164.80
2018-04-13T14:06:27.745Z,96161.55
2018-04-13T14:08:53.661Z,96175.25
2018-04-13T14:11:19.548Z,96176.55
2018-04-13T14:13:47.419Z,96175.09
2018-04-13T14:16:13.302Z,96178.95
2018-04-13T14:18:42.484Z,96184.11
2018-04-13T14:21:08.396Z,96186.62
2018-04-13T14:23:38.121Z,96191.16
2018-04-13T14:26:04.010Z,96187.43
2018-04-13T14:28:31.055Z,96182.03
2018-04-13T14:30:57.861Z,96196.56
2018-04-13T14:33:26.038Z,96189.86
2018-04-13T14:35:52.017Z,96196.80
2018-04-13T14:38:21.842Z,96202.63
2018-04-13T14:40:47.869Z,96204.32
2018-04-13T14:43:13.957Z,96204.67
2018-04-13T14:45:39.870Z,96207.70
2018-04-13T14:48:05.807Z,96209.55
2018-04-13T14:50:32.150Z,96210.39
2018-04-13T14:52:58.031Z,96204.71
2018-04-13T14:55:26.856Z,96208.20
2018-04-13T14:57:52.778Z,96211.23
2018-04-13T15:00:21.800Z,96213.91
2018-04-13T15:02:52.640Z,96215.57
2018-04-13T15:05:18.551Z,96213.55
2018-04-13T15:07:44.510Z,96212.01
2018-04-13T15:10:11.716Z,96206.02
2018-04-13T15:12:37.615Z,96217.23
2018-04-13T15:15:06.779Z,96223.23
2018-04-13T15:17:32.665Z,96226.97
2018-04-13T15:19:58.554Z,96227.11
2018-04-13T15:22:24.501Z,96232.50
2018-04-13T15:24:50.416Z,96229.52
2018-04-13T15:27:17.866Z,96224.53
2018-04-13T15:29:43.746Z,96223.83
2018-04-13T15:32:12.771Z,96215.56
2018-04-13T15:34:38.751Z,96217.11
2018-04-13T15:37:07.861Z,96209.44
2018-04-13T15:39:33.764Z,96221.09
2018-04-13T15:42:01.766Z,96211.36
2018-04-13T15:44:27.666Z,96211.75
2018-04-13T15:46:56.884Z,96210.19
2018-04-13T15:49:22.763Z,96216.45
2018-04-13T15:51:51.695Z,96215.55
2018-04-13T15:54:17.629Z,96212.58
2018-04-13T15:56:43.497Z,96209.53
2018-04-13T15:59:09.403Z,96206.63
2018-04-13T16:01:35.572Z,96198.71
2018-04-13T16:04:02.740Z,96194.86
2018-04-13T16:06:28.626Z,96203.88
2018-04-13T16:08:57.344Z,96194.23
2018-04-13T16:11:23.243Z,96197.22
2018-04-13T16:13:52.093Z,96202.97
2018-04-13T16:16:18.001Z,96189.00
2018-04-13T16:18:46.849Z,96183.88
2018-04-13T16:21:12.740Z,96174.73
2018-04-13T16:23:42.611Z,96195.56
2018-04-13T16:26:08.519Z,96204.41
2018-04-13T16:28:36.235Z,96209.95
2018-04-13T16:31:02.119Z,96209.76
2018-04-13T16:33:28.011Z,96213.11
2018-04-13T16:35:53.946Z,96210.91
2018-04-13T16:38:19.868Z,96210.73
2018-04-13T16:40:47.939Z,96204.98
2018-04-13T16:43:13.876Z,96209.76
2018-04-13T16:45:42.721Z,96213.28
2018-04-13T16:48:08.660Z,96217.59
2018-04-13T16:50:38.467Z,96211.75
2018-04-13T16:53:04.366Z,96214.35
2018-04-13T16:55:33.968Z,96218.13
2018-04-13T16:57:59.860Z,96218.86
2018-04-13T17:00:26.672Z,96219.38
2018-04-13T17:02:52.594Z,96219.59
2018-04-13T17:05:21.625Z,96228.19
2018-04-13T17:07:47.554Z,96233.95
2018-04-13T17:10:13.441Z,96229.55
2018-04-13T17:12:39.831Z,96236.79
2018-04-13T17:15:05.723Z,96237.88
2018-04-13T17:17:33.565Z,96238.78
2018-04-13T17:19:59.485Z,96237.34
2018-04-13T17:22:28.573Z,96245.89
2018-04-13T17:24:54.503Z,96239.33
2018-04-13T17:27:24.408Z,96249.27
2018-04-13T17:29:50.307Z,96255.06
2018-04-13T17:32:19.362Z,96261.65
2018-04-13T17:34:45.292Z,96269.67
2018-04-13T17:37:12.003Z,96266.33
2018-04-13T17:39:37.922Z,96265.25
2018-04-13T17:42:06.791Z,96274.95
2018-04-13T17:44:32.666Z,96274.44
2018-04-13T17:46:58.635Z,96273.91
2018-04-13T17:49:24.531Z,96276.41
2018-04-13T17:51:50.422Z,96288.98
2018-04-13T17:54:19.524Z,96288.34
2018-04-13T17:56:45.555Z,96282.70
2018-04-13T17:59:13.387Z,96289.50
2018-04-13T18:01:39.290Z,96288.98
2018-04-13T18:04:08.321Z,96297.52
2018-04-13T18:06:34.272Z,96302.55
2018-04-13T18:09:03.094Z,96308.23
2018-04-13T18:11:29.005Z,96311.76
2018-04-13T18:13:57.771Z,96313.41
2018-04-13T18:16:23.700Z,96315.27
2018-04-13T18:18:53.564Z,96323.78
2018-04-13T18:21:19.491Z,96330.23
2018-04-13T18:23:45.404Z,96331.69
2018-04-13T18:26:11.306Z,96331.53
2018-04-13T18:28:37.175Z,96344.20
2018-04-13T18:31:04.131Z,96345.77
2018-04-13T18:33:30.022Z,96340.61
2018-04-13T18:35:59.444Z,96353.85
2018-04-13T18:38:25.397Z,96353.38
2018-04-13T18:40:55.113Z,96360.97
2018-04-13T18:43:21.015Z,96358.07
2018-04-13T18:45:48.018Z,96372.19
2018-04-13T18:48:14.424Z,96375.22
2018-04-13T18:50:44.017Z,96376.84
2018-04-13T18:53:09.920Z,96374.14
2018-04-13T18:55:37.567Z,96377.75
2018-04-13T18:58:03.505Z,96380.06
2018-04-13T19:00:29.424Z,96376.36
2018-04-13T19:02:55.309Z,96377.88
2018-04-13T19:05:22.411Z,96364.95
2018-04-13T19:07:49.446Z,96383.85
2018-04-13T19:10:15.347Z,96389.03
2018-04-13T19:12:43.831Z,96391.50
2018-04-13T19:15:09.763Z,96397.16
2018-04-13T19:17:38.682Z,96390.41
2018-04-13T19:20:04.658Z,96395.74
2018-04-13T19:22:33.635Z,96393.36
2018-04-13T19:24:59.506Z,96403.78
2018-04-13T19:27:28.879Z,96361.66
2018-04-13T19:29:54.748Z,96414.06
2018-04-13T19:32:23.740Z,96416.21
2018-04-13T19:34:49.651Z,96416.75
2018-04-13T19:37:15.535Z,96417.78
2018-04-13T19:39:41.438Z,96425.87
2018-04-13T19:42:07.325Z,96421.33
2018-04-13T19:44:34.597Z,96425.05
2018-04-13T19:47:00.516Z,96431.67
2018-04-13T19:49:29.791Z,96432.22
2018-04-13T19:51:55.697Z,96436.30
2018-04-13T19:54:25.520Z,96436.63
2018-04-13T19:56:51.458Z,96433.09
2018-04-13T19:59:19.256Z,96434.66
2018-04-13T20:01:45.178Z,96437.66
2018-04-13T20:04:14.075Z,96437.78
2018-04-13T20:06:39.961Z,96447.14
2018-04-13T20:09:09.141Z,96444.20
2018-04-13T20:11:35.052Z,96453.80
2018-04-13T20:14:00.945Z,96448.05
2018-04-13T20:16:26.888Z,96452.22
2018-04-13T20:18:52.772Z,96460.27
2018-04-13T20:21:20.616Z,96462.27
2018-04-13T20:23:46.521Z,96459.59
2018-04-13T20:26:15.385Z,96468.78
2018-04-13T20:28:42.973Z,96463.95
2018-04-13T20:31:09.037Z,96467.78
2018-04-13T20:33:34.956Z,96459.53
2018-04-13T20:36:04.568Z,96458.61
2018-04-13T20:38:30.522Z,96464.16
2018-04-13T20:40:59.632Z,96461.92
2018-04-13T20:43:26.591Z,96458.37
2018-04-13T20:45:53.259Z,96457.44
2018-04-13T20:48:19.156Z,96458.16
2018-04-13T20:50:45.094Z,96463.33
2018-04-13T20:53:11.028Z,96477.34
2018-04-13T20:55:36.948Z,96475.20
2018-04-13T20:58:06.656Z,96472.77
2018-04-13T21:00:32.514Z,96476.59
2018-04-13T21:03:01.632Z,96480.18
2018-04-13T21:05:27.537Z,96481.56
2018-04-13T21:07:54.325Z,96479.10
2018-04-13T21:10:20.199Z,96479.10
2018-04-13T21:12:49.152Z,96483.31
2018-04-13T21:15:15.066Z,96488.72
2018-04-13T21:17:45.015Z,96485.09
2018-04-13T21:20:25.899Z,96487.92
2018-04-13T21:22:52.059Z,96487.05
2018-04-13T21:25:17.948Z,96487.33
2018-04-13T21:27:43.873Z,96491.74
2018-04-13T21:30:09.810Z,96488.80
2018-04-13T21:32:35.839Z,96492.25
2018-04-13T21:35:01.748Z,96485.38
2018-04-13T21:37:27.643Z,96494.00
2018-04-13T21:39:53.535Z,96495.44
2018-04-13T21:42:19.463Z,96493.34
2018-04-13T21:44:45.372Z,96499.67
2018-04-13T21:47:11.272Z,96501.56
2018-04-13T21:49:37.176Z,96502.72
2018-04-13T21:52:03.137Z,96502.03
2018-04-13T21:54:29.063Z,96500.75
2018-04-13T21:56:54.974Z,96502.16
2018-04-13T21:59:23.699Z,96501.55
2018-04-13T22:01:49.627Z,96516.47
2018-04-13T22:04:15.558Z,96509.55
2018-04-13T22:06:41.460Z,96515.98
2018-04-13T22:09:07.367Z,96511.94
2018-04-13T22:11:35.680Z,96519.04
2018-04-13T22:14:13.851Z,96528.66
2018-04-13T22:16:39.739Z,96517.45
2018-04-13T22:19:05.642Z,96519.63
2018-04-13T22:21:31.553Z,96521.32
2018-04-13T22:23:57.477Z,96520.31
2018-04-13T22:26:23.400Z,96523.97
2018-04-13T22:28:49.314Z,96516.61
2018-04-13T22:31:15.214Z,96527.17
2018-04-13T22:33:41.123Z,96537.77
2018-04-13T22:36:10.804Z,96539.44
2018-04-13T22:38:36.777Z,96543.05
2018-04-13T22:41:02.616Z,96542.59
2018-04-13T22:43:28.494Z,96541.91
2018-04-13T22:45:54.411Z,96545.88
2018-04-13T22:48:21.330Z,96541.27
2018-04-13T22:50:47.303Z,96545.90
2018-04-13T22:53:16.739Z,96546.16
2018-04-13T22:55:42.639Z,96558.67
2018-04-13T22:58:10.390Z,96558.69
2018-04-13T23:00:36.307Z,96567.74
2018-04-13T23:03:05.449Z,96563.23
2018-04-13T23:05:31.334Z,96562.66
2018-04-13T23:08:00.021Z,96563.06
2018-04-13T23:10:25.919Z,96562.98
2018-04-13T23:12:55.756Z,96564.45
2018-04-13T23:15:21.686Z,96553.11
2018-04-13T23:17:47.567Z,96567.89
2018-04-13T23:20:13.487Z,96564.49
2018-04-13T23:22:39.379Z,96570.39
2018-04-13T23:25:06.759Z,96570.09
2018-04-13T23:27:32.648Z,96567.22
2018-04-13T23:30:01.436Z,96565.55
2018-04-13T23:32:27.374Z,96569.16
2018-04-13T23:34:55.826Z,96576.27
2018-04-13T23:37:21.717Z,96581.91
2018-04-13T23:39:50.786Z,96580.24
2018-04-13T23:42:16.678Z,96582.41
2018-04-13T23:44:46.383Z,96586.57
2018-04-13T23:47:12.284Z,96589.06
2018-04-13T23:49:39.988Z,96592.16
2018-04-13T23:52:05.887Z,96591.55
2018-04-13T23:54:31.791Z,96591.59
2018-04-13T23:56:57.721Z,96587.02
2018-04-13T23:59:23.632Z,96587.22
